createdAt,value
2022-09-22T00:00:28.818Z,8.09
2022-09-22T00:01:28.833Z,8.06
2022-09-22T00:02:28.816Z,8.03
2022-09-22T00:03:28.710Z,8.03
2022-09-22T00:04:28.618Z,8.03
2022-09-22T00:05:28.609Z,8.00
2022-09-22T00:06:28.578Z,8.02
2022-09-22T00:07:28.658Z,8.02
2022-09-22T00:08:28.614Z,8.02
2022-09-22T00:09:28.585Z,8.02
2022-09-22T00:10:28.633Z,8.02
2022-09-22T00:11:28.571Z,8.02
2022-09-22T00:12:28.523Z,8.02
2022-09-22T00:13:28.532Z,8.02
2022-09-22T00:14:28.478Z,8.02
2022-09-22T00:15:28.530Z,8.00
2022-09-22T00:16:28.579Z,8.00
2022-09-22T00:17:28.464Z,7.99
2022-09-22T00:18:28.471Z,7.99
2022-09-22T00:19:29.386Z,7.96
2022-09-22T00:20:28.462Z,7.95
2022-09-22T00:21:28.491Z,7.96
2022-09-22T00:22:28.401Z,7.96
2022-09-22T00:23:28.339Z,7.99
2022-09-22T00:24:28.462Z,7.95
2022-09-22T00:25:28.453Z,7.95
2022-09-22T00:26:28.341Z,7.95
2022-09-22T00:27:28.386Z,7.92
2022-09-22T00:28:28.314Z,7.92
2022-09-22T00:29:28.330Z,7.89
2022-09-22T00:30:28.341Z,7.88
2022-09-22T00:31:28.350Z,7.84
2022-09-22T00:32:28.349Z,7.81
2022-09-22T00:33:28.286Z,7.82
2022-09-22T00:34:28.307Z,7.81
2022-09-22T00:35:28.395Z,7.77
2022-09-22T00:36:28.233Z,7.79
2022-09-22T00:37:28.196Z,7.81
2022-09-22T00:38:28.249Z,7.81
2022-09-22T00:39:28.298Z,7.81
2022-09-22T00:40:28.234Z,7.82
2022-09-22T00:41:28.280Z,7.81
2022-09-22T00:42:28.173Z,7.79
2022-09-22T00:43:28.200Z,7.77
2022-09-22T00:44:28.183Z,7.76
2022-09-22T00:45:28.212Z,7.76
2022-09-22T00:46:28.175Z,7.74
2022-09-22T00:47:28.088Z,7.71
2022-09-22T00:48:28.213Z,7.71
2022-09-22T00:49:28.121Z,7.70
2022-09-22T00:50:28.212Z,7.69
2022-09-22T00:51:28.083Z,7.70
2022-09-22T00:52:28.075Z,7.69
2022-09-22T00:53:28.024Z,7.69
2022-09-22T00:54:28.015Z,7.67
2022-09-22T00:55:28.017Z,7.66
2022-09-22T00:56:27.979Z,7.62
2022-09-22T00:57:27.954Z,7.62
2022-09-22T00:58:27.954Z,7.60
2022-09-22T00:59:27.951Z,7.58
2022-09-22T01:00:27.994Z,7.58
2022-09-22T01:01:27.991Z,7.60
2022-09-22T01:02:27.891Z,7.58
2022-09-22T01:03:29.986Z,7.57
2022-09-22T01:04:27.869Z,7.58
2022-09-22T01:05:27.900Z,7.54
2022-09-22T01:06:27.898Z,7.52
2022-09-22T01:07:27.857Z,7.52
2022-09-22T01:08:27.857Z,7.52
2022-09-22T01:09:27.827Z,7.52
2022-09-22T01:10:27.818Z,7.54
2022-09-22T01:11:27.799Z,7.52
2022-09-22T01:12:27.769Z,7.55
2022-09-22T01:13:27.786Z,7.52
2022-09-22T01:14:27.747Z,7.54
2022-09-22T01:15:27.790Z,7.54
2022-09-22T01:16:27.884Z,7.54
2022-09-22T01:17:27.748Z,7.54
2022-09-22T01:18:27.709Z,7.54
2022-09-22T01:19:27.772Z,7.51
2022-09-22T01:20:27.716Z,7.51
2022-09-22T01:21:27.696Z,7.50
2022-09-22T01:22:27.655Z,7.51
2022-09-22T01:23:27.651Z,7.51
2022-09-22T01:24:27.656Z,7.50
2022-09-22T01:25:27.678Z,7.51
2022-09-22T01:26:27.610Z,7.52
2022-09-22T01:27:27.660Z,7.52
2022-09-22T01:28:27.605Z,7.50
2022-09-22T01:29:27.624Z,7.47
2022-09-22T01:30:27.625Z,7.45
2022-09-22T01:31:27.641Z,7.47
2022-09-22T01:32:27.566Z,7.47
2022-09-22T01:33:27.554Z,7.47
2022-09-22T01:34:27.534Z,7.48
2022-09-22T01:35:27.531Z,7.48
2022-09-22T01:36:27.559Z,7.48
2022-09-22T01:37:27.526Z,7.47
2022-09-22T01:38:27.493Z,7.45
2022-09-22T01:39:27.495Z,7.44
2022-09-22T01:40:27.526Z,7.42
2022-09-22T01:41:27.494Z,7.41
2022-09-22T01:42:27.448Z,7.41
2022-09-22T01:43:27.459Z,7.36
2022-09-22T01:44:27.423Z,7.33
2022-09-22T01:45:27.430Z,7.32
2022-09-22T01:46:27.469Z,7.32
2022-09-22T01:47:27.428Z,7.29
2022-09-22T01:48:27.400Z,7.29
2022-09-22T01:49:27.374Z,7.30
2022-09-22T01:50:27.352Z,7.30
2022-09-22T01:51:27.417Z,7.32
2022-09-22T01:52:27.339Z,7.33
2022-09-22T01:53:27.336Z,7.32
2022-09-22T01:54:27.345Z,7.30
2022-09-22T01:55:27.292Z,7.32
2022-09-22T01:56:27.335Z,7.29
2022-09-22T01:57:27.302Z,7.30
2022-09-22T01:58:27.269Z,7.29
2022-09-22T01:59:27.260Z,7.27
2022-09-22T02:00:27.243Z,7.27
2022-09-22T02:01:27.393Z,7.29
2022-09-22T02:02:27.364Z,7.27
2022-09-22T02:03:27.212Z,7.26
2022-09-22T02:04:27.210Z,7.24
2022-09-22T02:05:27.201Z,7.21
2022-09-22T02:06:27.195Z,7.21
2022-09-22T02:07:27.159Z,7.19
2022-09-22T02:08:27.203Z,7.16
2022-09-22T02:09:27.157Z,7.18
2022-09-22T02:10:27.136Z,7.18
2022-09-22T02:11:27.138Z,7.19
2022-09-22T02:12:27.156Z,7.15
2022-09-22T02:13:27.105Z,7.16
2022-09-22T02:14:27.105Z,7.16
2022-09-22T02:15:27.114Z,7.15
2022-09-22T02:16:27.106Z,7.16
2022-09-22T02:17:29.623Z,7.16
2022-09-22T02:18:27.068Z,7.18
2022-09-22T02:19:27.047Z,7.18
2022-09-22T02:20:27.042Z,7.16
2022-09-22T02:21:27.019Z,7.16
2022-09-22T02:22:27.031Z,7.15
2022-09-22T02:23:26.979Z,7.15
2022-09-22T02:24:26.969Z,7.15
2022-09-22T02:25:27.004Z,7.18
2022-09-22T02:26:26.988Z,7.18
2022-09-22T02:27:27.002Z,7.18
2022-09-22T02:28:26.954Z,7.18
2022-09-22T02:29:26.923Z,7.18
2022-09-22T02:30:26.921Z,7.19
2022-09-22T02:31:26.989Z,7.19
2022-09-22T02:32:26.896Z,7.19
2022-09-22T02:33:26.868Z,7.19
2022-09-22T02:34:26.886Z,7.19
2022-09-22T02:35:26.866Z,7.19
2022-09-22T02:36:26.858Z,7.18
2022-09-22T02:37:26.832Z,7.16
2022-09-22T02:38:26.864Z,7.16
2022-09-22T02:39:26.814Z,7.14
2022-09-22T02:40:26.873Z,7.14
2022-09-22T02:41:26.826Z,7.14
2022-09-22T02:42:26.770Z,7.14
2022-09-22T02:43:26.802Z,7.12
2022-09-22T02:44:26.745Z,7.11
2022-09-22T02:45:26.751Z,7.08
2022-09-22T02:46:26.802Z,7.07
2022-09-22T02:47:26.720Z,7.05
2022-09-22T02:48:26.712Z,7.01
2022-09-22T02:49:26.710Z,7.04
2022-09-22T02:50:26.716Z,7.01
2022-09-22T02:51:26.710Z,7.01
2022-09-22T02:52:26.665Z,7.01
2022-09-22T02:53:26.675Z,7.01
2022-09-22T02:54:26.663Z,7.00
2022-09-22T02:55:26.666Z,6.97
2022-09-22T02:56:26.660Z,6.94
2022-09-22T02:57:26.604Z,6.91
2022-09-22T02:58:26.624Z,6.87
2022-09-22T02:59:26.612Z,6.86
2022-09-22T03:00:26.601Z,6.83
2022-09-22T03:01:26.598Z,6.86
2022-09-22T03:02:26.617Z,6.83
2022-09-22T03:03:26.563Z,6.82
2022-09-22T03:04:26.570Z,6.83
2022-09-22T03:05:26.539Z,6.82
2022-09-22T03:06:26.512Z,6.79
2022-09-22T03:07:26.509Z,6.81
2022-09-22T03:08:26.560Z,6.82
2022-09-22T03:09:26.475Z,6.79
2022-09-22T03:10:26.514Z,6.79
2022-09-22T03:11:26.475Z,6.81
2022-09-22T03:12:26.457Z,6.81
2022-09-22T03:13:26.457Z,6.81
2022-09-22T03:14:26.481Z,6.81
2022-09-22T03:15:27.210Z,6.78
2022-09-22T03:16:26.417Z,6.78
2022-09-22T03:17:26.394Z,6.76
2022-09-22T03:18:26.411Z,6.72
2022-09-22T03:19:26.380Z,6.72
2022-09-22T03:20:26.407Z,6.71
2022-09-22T03:21:26.348Z,6.69
2022-09-22T03:22:26.362Z,6.68
2022-09-22T03:23:26.407Z,6.65
2022-09-22T03:24:26.320Z,6.65
2022-09-22T03:25:26.313Z,6.64
2022-09-22T03:26:26.332Z,6.64
2022-09-22T03:27:26.303Z,6.64
2022-09-22T03:28:26.293Z,6.65
2022-09-22T03:29:26.306Z,6.65
2022-09-22T03:30:26.255Z,6.68
2022-09-22T03:31:26.250Z,6.68
2022-09-22T03:32:26.254Z,6.65
2022-09-22T03:33:26.228Z,6.68
2022-09-22T03:34:26.223Z,6.68
2022-09-22T03:35:26.202Z,6.68
2022-09-22T03:36:26.234Z,6.69
2022-09-22T03:37:26.166Z,6.68
2022-09-22T03:38:26.410Z,6.68
2022-09-22T03:39:26.147Z,6.69
2022-09-22T03:40:26.190Z,6.69
2022-09-22T03:41:26.126Z,6.69
2022-09-22T03:42:26.131Z,6.65
2022-09-22T03:43:26.102Z,6.65
2022-09-22T03:44:26.126Z,6.65
2022-09-22T03:45:26.102Z,6.63
2022-09-22T03:46:26.117Z,6.63
2022-09-22T03:47:26.115Z,6.63
2022-09-22T03:48:26.049Z,6.60
2022-09-22T03:49:26.046Z,6.57
2022-09-22T03:50:26.094Z,6.58
2022-09-22T03:51:26.018Z,6.57
2022-09-22T03:52:26.025Z,6.57
2022-09-22T03:53:26.015Z,6.57
2022-09-22T03:54:25.995Z,6.57
2022-09-22T03:55:25.975Z,6.55
2022-09-22T03:56:26.001Z,6.55
2022-09-22T03:57:25.968Z,6.57
2022-09-22T03:58:25.950Z,6.58
2022-09-22T03:59:25.995Z,6.57
2022-09-22T04:00:25.915Z,6.57
2022-09-22T04:01:26.014Z,6.57
2022-09-22T04:02:25.904Z,6.57
2022-09-22T04:03:25.940Z,6.55
2022-09-22T04:04:25.877Z,6.54
2022-09-22T04:05:25.888Z,6.54
2022-09-22T04:06:25.845Z,6.54
2022-09-22T04:07:25.890Z,6.54
2022-09-22T04:08:25.869Z,6.50
2022-09-22T04:09:25.814Z,6.45
2022-09-22T04:10:25.793Z,6.43
2022-09-22T04:11:25.799Z,6.39
2022-09-22T04:12:25.789Z,6.35
2022-09-22T04:13:25.786Z,6.35
2022-09-22T04:14:25.762Z,6.32
2022-09-22T04:15:25.760Z,6.33
2022-09-22T04:16:25.822Z,6.33
2022-09-22T04:17:25.802Z,6.33
2022-09-22T04:18:25.723Z,6.38
2022-09-22T04:19:25.711Z,6.39
2022-09-22T04:20:25.716Z,6.39
2022-09-22T04:21:25.693Z,6.38
2022-09-22T04:22:25.670Z,6.38
2022-09-22T04:23:25.731Z,6.38
2022-09-22T04:24:25.657Z,6.38
2022-09-22T04:25:25.647Z,6.39
2022-09-22T04:26:25.612Z,6.40
2022-09-22T04:27:25.659Z,6.39
2022-09-22T04:28:25.625Z,6.40
2022-09-22T04:29:25.608Z,6.39
2022-09-22T04:30:25.728Z,6.40
2022-09-22T04:31:25.586Z,6.39
2022-09-22T04:32:25.564Z,6.40
2022-09-22T04:33:25.575Z,6.40
2022-09-22T04:34:25.527Z,6.40
2022-09-22T04:35:25.559Z,6.40
2022-09-22T04:36:25.512Z,6.39
2022-09-22T04:37:25.498Z,6.40
2022-09-22T04:38:25.482Z,6.38
2022-09-22T04:39:25.545Z,6.39
2022-09-22T04:40:25.548Z,6.38
2022-09-22T04:41:25.464Z,6.36
2022-09-22T04:42:25.447Z,6.36
2022-09-22T04:43:25.435Z,6.36
2022-09-22T04:44:25.462Z,6.36
2022-09-22T04:45:25.406Z,6.36
2022-09-22T04:46:25.464Z,6.35
2022-09-22T04:47:25.424Z,6.36
2022-09-22T04:48:25.414Z,6.33
2022-09-22T04:49:25.405Z,6.36
2022-09-22T04:50:25.356Z,6.35
2022-09-22T04:51:25.335Z,6.33
2022-09-22T04:52:25.324Z,6.35
2022-09-22T04:53:25.325Z,6.32
2022-09-22T04:54:25.332Z,6.32
2022-09-22T04:55:25.324Z,6.30
2022-09-22T04:56:25.284Z,6.30
2022-09-22T04:57:25.275Z,6.30
2022-09-22T04:58:25.262Z,6.28
2022-09-22T04:59:25.308Z,6.28
2022-09-22T05:00:25.233Z,6.30
2022-09-22T05:01:25.291Z,6.30
2022-09-22T05:02:25.214Z,6.32
2022-09-22T05:03:25.256Z,6.30
2022-09-22T05:04:25.252Z,6.32
2022-09-22T05:05:25.178Z,6.33
2022-09-22T05:06:25.173Z,6.33
2022-09-22T05:07:25.189Z,6.32
2022-09-22T05:08:25.203Z,6.32
2022-09-22T05:09:25.135Z,6.33
2022-09-22T05:10:25.186Z,6.33
2022-09-22T05:11:25.136Z,6.32
2022-09-22T05:12:25.121Z,6.33
2022-09-22T05:13:25.094Z,6.28
2022-09-22T05:14:26.516Z,6.27
2022-09-22T05:15:25.095Z,6.27
2022-09-22T05:16:25.128Z,6.27
2022-09-22T05:17:25.053Z,6.27
2022-09-22T05:18:25.039Z,6.27
2022-09-22T05:19:25.051Z,6.24
2022-09-22T05:20:25.038Z,6.24
2022-09-22T05:21:25.022Z,6.21
2022-09-22T05:22:25.042Z,6.21
2022-09-22T05:23:24.984Z,6.24
2022-09-22T05:24:24.968Z,6.24
2022-09-22T05:25:24.988Z,6.27
2022-09-22T05:26:24.999Z,6.27
2022-09-22T05:27:24.941Z,6.27
2022-09-22T05:28:24.931Z,6.25
2022-09-22T05:29:27.912Z,6.25
2022-09-22T05:30:24.997Z,6.25
2022-09-22T05:31:24.976Z,6.27
2022-09-22T05:32:24.888Z,6.27
2022-09-22T05:33:24.871Z,6.27
2022-09-22T05:34:24.878Z,6.28
2022-09-22T05:35:24.874Z,6.27
2022-09-22T05:36:24.841Z,6.28
2022-09-22T05:37:24.853Z,6.30
2022-09-22T05:38:24.816Z,6.32
2022-09-22T05:39:24.840Z,6.33
2022-09-22T05:40:24.873Z,6.35
2022-09-22T05:41:24.792Z,6.35
2022-09-22T05:42:24.817Z,6.36
2022-09-22T05:43:24.766Z,6.39
2022-09-22T05:44:24.758Z,6.39
2022-09-22T05:45:24.786Z,6.40
2022-09-22T05:46:24.724Z,6.42
2022-09-22T05:47:24.750Z,6.42
2022-09-22T05:48:28.922Z,6.42
2022-09-22T05:49:24.736Z,6.42
2022-09-22T05:50:24.717Z,6.43
2022-09-22T05:51:24.688Z,6.45
2022-09-22T05:52:24.686Z,6.45
2022-09-22T05:53:24.669Z,6.43
2022-09-22T05:54:24.668Z,6.45
2022-09-22T05:55:24.628Z,6.46
2022-09-22T05:56:24.614Z,6.48
2022-09-22T05:57:24.641Z,6.48
2022-09-22T05:58:24.579Z,6.50
2022-09-22T05:59:24.579Z,6.50
2022-09-22T06:00:24.581Z,6.50
2022-09-22T06:01:24.606Z,6.46
2022-09-22T06:02:26.498Z,6.46
2022-09-22T06:03:24.525Z,6.48
2022-09-22T06:04:24.516Z,6.48
2022-09-22T06:05:24.513Z,6.50
2022-09-22T06:06:24.505Z,6.51
2022-09-22T06:07:24.526Z,6.54
2022-09-22T06:08:24.505Z,6.57
2022-09-22T06:09:24.499Z,6.57
2022-09-22T06:10:24.469Z,6.58
2022-09-22T06:11:24.456Z,6.58
2022-09-22T06:12:24.482Z,6.61
2022-09-22T06:13:24.430Z,6.63
2022-09-22T06:14:24.432Z,6.65
2022-09-22T06:15:24.455Z,6.69
2022-09-22T06:16:24.459Z,6.69
2022-09-22T06:17:24.425Z,6.71
2022-09-22T06:18:25.078Z,6.71
2022-09-22T06:19:24.871Z,6.73
2022-09-22T06:20:24.549Z,6.76
2022-09-22T06:21:24.380Z,6.79
2022-09-22T06:22:24.369Z,6.82
2022-09-22T06:23:24.342Z,6.86
2022-09-22T06:24:24.298Z,6.87
2022-09-22T06:25:24.350Z,6.91
2022-09-22T06:26:24.333Z,6.96
2022-09-22T06:27:24.286Z,6.99
2022-09-22T06:28:24.272Z,7.04
2022-09-22T06:29:24.292Z,7.07
2022-09-22T06:30:24.241Z,7.12
2022-09-22T06:31:24.302Z,7.16
2022-09-22T06:32:24.240Z,7.21
2022-09-22T06:33:24.199Z,7.24
2022-09-22T06:34:24.192Z,7.27
2022-09-22T06:35:24.175Z,7.30
2022-09-22T06:36:24.193Z,7.33
2022-09-22T06:37:24.221Z,7.36
2022-09-22T06:38:24.135Z,7.39
2022-09-22T06:39:24.153Z,7.44
2022-09-22T06:40:24.229Z,7.47
2022-09-22T06:41:24.185Z,7.52
2022-09-22T06:42:24.184Z,7.55
2022-09-22T06:43:24.442Z,7.62
2022-09-22T06:44:24.100Z,7.66
2022-09-22T06:45:24.138Z,7.69
2022-09-22T06:46:24.072Z,7.73
2022-09-22T06:47:24.123Z,7.76
2022-09-22T06:48:24.199Z,7.81
2022-09-22T06:49:24.067Z,7.85
2022-09-22T06:50:24.495Z,7.89
2022-09-22T06:51:24.003Z,7.92
2022-09-22T06:52:24.887Z,7.99
2022-09-22T06:53:26.592Z,8.03
2022-09-22T06:54:25.563Z,8.06
2022-09-22T06:55:24.501Z,8.12
2022-09-22T06:56:23.962Z,8.14
2022-09-22T06:57:23.941Z,8.20
2022-09-22T06:58:23.949Z,8.25
2022-09-22T06:59:23.936Z,8.28
2022-09-22T07:00:23.894Z,8.32
2022-09-22T07:01:23.971Z,8.37
2022-09-22T07:02:23.978Z,8.40
2022-09-22T07:03:23.907Z,8.46
2022-09-22T07:04:23.886Z,8.52
2022-09-22T07:05:23.853Z,8.55
2022-09-22T07:06:23.834Z,8.57
2022-09-22T07:07:23.821Z,8.61
2022-09-22T07:08:23.809Z,8.65
2022-09-22T07:09:23.840Z,8.68
2022-09-22T07:10:23.867Z,8.75
2022-09-22T07:11:23.859Z,8.76
2022-09-22T07:12:23.757Z,8.79
2022-09-22T07:13:23.797Z,8.83
2022-09-22T07:14:23.744Z,8.91
2022-09-22T07:15:23.756Z,8.98
2022-09-22T07:16:23.796Z,8.98
2022-09-22T07:17:23.735Z,9.06
2022-09-22T07:18:23.692Z,9.13
2022-09-22T07:19:23.680Z,9.16
2022-09-22T07:20:23.753Z,9.19
2022-09-22T07:21:23.683Z,9.20
2022-09-22T07:22:23.655Z,9.26
2022-09-22T07:23:23.656Z,9.31
2022-09-22T07:24:23.643Z,9.34
2022-09-22T07:25:23.702Z,9.35
2022-09-22T07:26:23.611Z,9.41
2022-09-22T07:27:23.621Z,9.44
2022-09-22T07:28:23.658Z,9.49
2022-09-22T07:29:23.601Z,9.52
2022-09-22T07:30:23.748Z,9.58
2022-09-22T07:31:28.452Z,9.60
2022-09-22T07:32:23.551Z,9.68
2022-09-22T07:33:23.555Z,9.73
2022-09-22T07:34:23.516Z,9.75
2022-09-22T07:35:23.520Z,9.83
2022-09-22T07:36:23.528Z,9.85
2022-09-22T07:37:23.491Z,9.89
2022-09-22T07:38:23.482Z,9.95
2022-09-22T07:39:23.534Z,10.02
2022-09-22T07:40:23.535Z,10.07
2022-09-22T07:41:23.471Z,10.04
2022-09-22T07:42:23.428Z,10.10
2022-09-22T07:43:23.418Z,10.17
2022-09-22T07:44:23.437Z,10.24
2022-09-22T07:45:23.392Z,10.31
2022-09-22T07:46:23.484Z,10.36
2022-09-22T07:47:23.370Z,10.42
2022-09-22T07:48:23.377Z,10.47
2022-09-22T07:49:23.371Z,10.52
2022-09-22T07:50:23.339Z,10.55
2022-09-22T07:51:23.350Z,10.57
2022-09-22T07:52:23.377Z,10.69
2022-09-22T07:53:23.312Z,10.73
2022-09-22T07:54:23.323Z,10.86
2022-09-22T07:55:23.306Z,10.95
2022-09-22T07:56:23.271Z,11.02
2022-09-22T07:57:23.288Z,11.06
2022-09-22T07:58:23.274Z,11.09
2022-09-22T07:59:23.251Z,11.16
2022-09-22T08:00:23.297Z,11.23
2022-09-22T08:01:23.219Z,11.20
2022-09-22T08:02:23.281Z,11.20
2022-09-22T08:03:23.227Z,11.17
2022-09-22T08:04:23.237Z,11.17
2022-09-22T08:05:23.184Z,11.26
2022-09-22T08:06:23.921Z,11.26
2022-09-22T08:07:23.163Z,11.20
2022-09-22T08:08:23.207Z,11.24
2022-09-22T08:09:23.135Z,11.33
2022-09-22T08:10:23.121Z,11.39
2022-09-22T08:11:23.135Z,11.45
2022-09-22T08:12:23.139Z,11.53
2022-09-22T08:13:23.110Z,11.57
2022-09-22T08:14:23.118Z,11.62
2022-09-22T08:15:26.855Z,11.72
2022-09-22T08:16:23.144Z,11.78
2022-09-22T08:17:23.033Z,11.82
2022-09-22T08:18:23.027Z,11.85
2022-09-22T08:19:23.046Z,11.85
2022-09-22T08:20:23.059Z,11.96
2022-09-22T08:21:22.994Z,12.05
2022-09-22T08:22:23.007Z,12.08
2022-09-22T08:23:22.964Z,12.12
2022-09-22T08:24:23.709Z,12.15
2022-09-22T08:25:22.957Z,12.22
2022-09-22T08:26:22.999Z,12.26
2022-09-22T08:27:22.923Z,12.33
2022-09-22T08:28:22.930Z,12.37
2022-09-22T08:29:22.920Z,12.31
2022-09-22T08:30:22.945Z,12.23
2022-09-22T08:31:22.948Z,12.25
2022-09-22T08:32:22.897Z,12.38
2022-09-22T08:33:22.856Z,12.48
2022-09-22T08:34:22.863Z,12.54
2022-09-22T08:35:22.883Z,12.62
2022-09-22T08:36:22.859Z,12.69
2022-09-22T08:37:22.821Z,12.74
2022-09-22T08:38:22.801Z,12.73
2022-09-22T08:39:22.803Z,12.70
2022-09-22T08:40:22.886Z,12.73
2022-09-22T08:41:22.763Z,12.70
2022-09-22T08:42:22.796Z,12.67
2022-09-22T08:43:22.808Z,12.74
2022-09-22T08:44:22.754Z,12.85
2022-09-22T08:45:26.881Z,12.92
2022-09-22T08:46:22.781Z,13.01
2022-09-22T08:47:22.714Z,13.01
2022-09-22T08:48:22.702Z,13.09
2022-09-22T08:49:22.812Z,13.10
2022-09-22T08:50:22.675Z,13.22
2022-09-22T08:51:22.707Z,13.29
2022-09-22T08:52:22.683Z,13.31
2022-09-22T08:53:22.726Z,13.38
2022-09-22T08:54:22.641Z,13.41
2022-09-22T08:55:22.610Z,13.39
2022-09-22T08:56:22.632Z,13.46
2022-09-22T08:57:22.624Z,13.50
2022-09-22T08:58:22.590Z,13.57
2022-09-22T08:59:22.622Z,13.59
2022-09-22T09:00:22.595Z,13.63
2022-09-22T09:01:22.662Z,13.62
2022-09-22T09:02:22.629Z,13.71
2022-09-22T09:03:22.710Z,13.80
2022-09-22T09:04:22.514Z,13.72
2022-09-22T09:05:22.526Z,13.69
2022-09-22T09:06:22.500Z,13.79
2022-09-22T09:07:22.544Z,13.91
2022-09-22T09:08:22.499Z,14.02
2022-09-22T09:09:22.495Z,14.05
2022-09-22T09:10:22.476Z,14.08
2022-09-22T09:12:22.435Z,14.26
2022-09-22T09:13:22.482Z,14.36
2022-09-22T09:14:22.444Z,14.48
2022-09-22T09:15:22.461Z,14.57
2022-09-22T09:16:22.429Z,14.57
2022-09-22T09:17:22.377Z,14.61
2022-09-22T09:18:22.414Z,14.74
2022-09-22T09:19:22.354Z,14.82
2022-09-22T09:20:22.378Z,14.83
2022-09-22T09:21:22.319Z,14.93
2022-09-22T09:22:22.317Z,14.95
2022-09-22T09:23:22.400Z,14.97
2022-09-22T09:25:23.351Z,14.87
2022-09-22T09:26:22.271Z,14.91
2022-09-22T09:27:22.267Z,14.87
2022-09-22T09:28:27.551Z,14.93
2022-09-22T09:29:22.255Z,15.00
2022-09-22T09:30:22.231Z,15.03
2022-09-22T09:31:22.275Z,15.16
2022-09-22T09:32:22.221Z,15.30
2022-09-22T09:33:22.234Z,15.34
2022-09-22T09:34:22.193Z,15.40
2022-09-22T09:35:22.181Z,15.49
2022-09-22T09:36:22.157Z,15.55
2022-09-22T09:37:22.170Z,15.62
2022-09-22T09:38:22.135Z,15.67
2022-09-22T09:39:22.270Z,15.58
2022-09-22T09:40:22.282Z,15.64
2022-09-22T09:41:22.101Z,15.64
2022-09-22T09:42:22.138Z,15.70
2022-09-22T09:43:22.080Z,15.76
2022-09-22T09:44:22.106Z,15.84
2022-09-22T09:45:22.069Z,15.76
2022-09-22T09:46:22.073Z,15.64
2022-09-22T09:47:22.032Z,15.55
2022-09-22T09:48:22.045Z,15.59
2022-09-22T09:49:22.048Z,15.66
2022-09-22T09:50:22.049Z,15.68
2022-09-22T09:51:21.992Z,15.67
2022-09-22T09:52:22.010Z,15.80
2022-09-22T09:53:22.005Z,15.88
2022-09-22T09:54:21.968Z,15.88
2022-09-22T09:55:26.700Z,15.98
2022-09-22T09:56:21.936Z,16.07
2022-09-22T09:57:27.560Z,16.14
2022-09-22T09:58:21.963Z,16.29
2022-09-22T09:59:21.916Z,16.44
2022-09-22T10:00:21.919Z,16.51
2022-09-22T10:01:21.897Z,16.55
2022-09-22T10:02:21.876Z,16.50
2022-09-22T10:03:21.941Z,16.51
2022-09-22T10:04:21.873Z,16.62
2022-09-22T10:05:21.893Z,16.57
2022-09-22T10:06:21.829Z,16.55
2022-09-22T10:07:21.883Z,16.34
2022-09-22T10:08:21.821Z,16.23
2022-09-22T10:09:21.844Z,16.30
2022-09-22T10:10:21.792Z,16.44
2022-09-22T10:11:21.816Z,16.41
2022-09-22T10:12:21.771Z,16.44
2022-09-22T10:13:21.750Z,16.48
2022-09-22T10:14:21.756Z,16.48
2022-09-22T10:15:21.785Z,16.50
2022-09-22T10:16:21.946Z,16.59
2022-09-22T10:17:21.704Z,16.75
2022-09-22T10:18:21.708Z,16.91
2022-09-22T10:19:21.668Z,16.99
2022-09-22T10:20:21.705Z,16.88
2022-09-22T10:21:21.684Z,16.91
2022-09-22T10:22:21.640Z,16.92
2022-09-22T10:23:21.751Z,17.02
2022-09-22T10:24:21.647Z,17.00
2022-09-22T10:25:21.653Z,17.03
2022-09-22T10:26:21.612Z,17.10
2022-09-22T10:27:21.730Z,17.14
2022-09-22T10:28:21.674Z,17.12
2022-09-22T10:29:21.616Z,17.20
2022-09-22T10:30:21.746Z,17.32
2022-09-22T10:31:22.309Z,17.45
2022-09-22T10:32:21.532Z,17.53
2022-09-22T10:33:21.585Z,17.60
2022-09-22T10:34:21.537Z,17.63
2022-09-22T10:35:21.523Z,17.76
2022-09-22T10:36:21.512Z,17.81
2022-09-22T10:37:21.485Z,17.91
2022-09-22T10:38:21.470Z,17.71
2022-09-22T10:39:21.507Z,17.70
2022-09-22T10:40:21.502Z,17.53
2022-09-22T10:41:21.448Z,17.38
2022-09-22T10:42:21.446Z,17.40
2022-09-22T10:43:21.402Z,17.54
2022-09-22T10:44:38.168Z,17.40
2022-09-22T10:45:21.381Z,17.36
2022-09-22T10:46:21.480Z,17.42
2022-09-22T10:47:26.194Z,17.42
2022-09-22T10:48:21.477Z,17.57
2022-09-22T10:49:21.364Z,17.76
2022-09-22T10:50:21.451Z,17.89
2022-09-22T10:51:21.315Z,17.94
2022-09-22T10:52:21.342Z,17.87
2022-09-22T10:53:21.345Z,17.74
2022-09-22T10:54:21.309Z,17.71
2022-09-22T10:55:21.297Z,17.86
2022-09-22T10:56:21.284Z,17.92
2022-09-22T10:57:21.272Z,17.84
2022-09-22T10:58:21.262Z,17.96
2022-09-22T10:59:21.246Z,18.05
2022-09-22T11:00:21.233Z,17.99
2022-09-22T11:01:21.246Z,18.09
2022-09-22T11:02:21.188Z,18.19
2022-09-22T11:03:21.208Z,18.25
2022-09-22T11:04:21.266Z,18.05
2022-09-22T11:05:21.155Z,18.02
2022-09-22T11:06:21.186Z,18.10
2022-09-22T11:07:21.136Z,18.26
2022-09-22T11:08:21.169Z,18.41
2022-09-22T11:09:21.125Z,18.57
2022-09-22T11:10:21.150Z,18.49
2022-09-22T11:11:21.088Z,18.46
2022-09-22T11:12:21.076Z,18.47
2022-09-22T11:13:21.103Z,18.53
2022-09-22T11:14:21.089Z,18.72
2022-09-22T11:15:21.040Z,18.74
2022-09-22T11:16:21.048Z,18.79
2022-09-22T11:17:21.027Z,18.97
2022-09-22T11:18:21.063Z,19.07
2022-09-22T11:19:21.029Z,18.90
2022-09-22T11:20:21.177Z,18.87
2022-09-22T11:21:20.990Z,18.96
2022-09-22T11:22:21.000Z,19.05
2022-09-22T11:23:20.978Z,19.06
2022-09-22T11:24:21.000Z,19.16
2022-09-22T11:25:20.946Z,19.09
2022-09-22T11:26:20.951Z,18.93
2022-09-22T11:27:20.954Z,18.82
2022-09-22T11:28:20.928Z,18.91
2022-09-22T11:29:20.931Z,18.96
2022-09-22T11:30:20.889Z,19.06
2022-09-22T11:31:20.884Z,19.16
2022-09-22T11:32:20.865Z,19.21
2022-09-22T11:33:20.870Z,18.96
2022-09-22T11:34:20.877Z,18.93
2022-09-22T11:35:20.833Z,19.07
2022-09-22T11:36:20.876Z,19.31
2022-09-22T11:37:20.809Z,19.23
2022-09-22T11:38:20.808Z,19.07
2022-09-22T11:39:20.797Z,19.06
2022-09-22T11:40:20.823Z,19.23
2022-09-22T11:41:20.766Z,19.39
2022-09-22T11:42:20.923Z,19.46
2022-09-22T11:43:20.732Z,19.34
2022-09-22T11:44:20.762Z,18.96
2022-09-22T11:45:20.760Z,18.97
2022-09-22T11:46:20.850Z,19.12
2022-09-22T11:47:20.801Z,19.31
2022-09-22T11:48:21.284Z,19.30
2022-09-22T11:49:20.753Z,19.32
2022-09-22T11:50:20.754Z,19.35
2022-09-22T11:51:20.689Z,19.55
2022-09-22T11:52:20.653Z,19.75
2022-09-22T11:53:20.702Z,19.58
2022-09-22T11:54:20.642Z,19.67
2022-09-22T11:55:20.607Z,19.55
2022-09-22T11:56:20.633Z,19.60
2022-09-22T11:57:20.633Z,19.70
2022-09-22T11:58:20.590Z,19.55
2022-09-22T11:59:20.581Z,19.25
2022-09-22T12:00:20.617Z,19.21
2022-09-22T12:01:20.601Z,19.20
2022-09-22T12:02:20.653Z,19.30
2022-09-22T12:03:20.611Z,19.43
2022-09-22T12:04:20.525Z,19.42
2022-09-22T12:05:20.528Z,19.47
2022-09-22T12:06:20.497Z,19.45
2022-09-22T12:07:20.462Z,19.24
2022-09-22T12:08:20.507Z,19.13
2022-09-22T12:09:20.454Z,19.35
2022-09-22T12:10:20.522Z,19.50
2022-09-22T12:11:20.463Z,19.61
2022-09-22T12:12:20.433Z,19.70
2022-09-22T12:13:20.959Z,19.80
2022-09-22T12:14:20.448Z,19.87
2022-09-22T12:15:20.423Z,19.67
2022-09-22T12:16:20.363Z,19.76
2022-09-22T12:17:22.943Z,19.82
2022-09-22T12:18:20.361Z,19.94
2022-09-22T12:19:20.352Z,20.07
2022-09-22T12:20:20.342Z,20.27
2022-09-22T12:21:20.395Z,20.48
2022-09-22T12:22:20.394Z,20.66
2022-09-22T12:23:20.305Z,20.87
2022-09-22T12:24:20.286Z,21.05
2022-09-22T12:25:31.484Z,21.22
2022-09-22T12:26:20.294Z,21.15
2022-09-22T12:27:20.275Z,20.96
2022-09-22T12:28:20.283Z,20.85
2022-09-22T12:29:20.265Z,20.73
2022-09-22T12:30:20.241Z,20.64
2022-09-22T12:31:20.350Z,20.51
2022-09-22T12:32:20.199Z,20.73
2022-09-22T12:33:20.207Z,20.83
2022-09-22T12:34:20.418Z,20.78
2022-09-22T12:35:20.319Z,20.63
2022-09-22T12:36:20.398Z,20.40
2022-09-22T12:37:20.280Z,20.60
2022-09-22T12:38:20.157Z,20.50
2022-09-22T12:39:20.133Z,20.53
2022-09-22T12:40:20.120Z,20.72
2022-09-22T12:41:20.118Z,20.76
2022-09-22T12:42:20.119Z,20.66
2022-09-22T12:43:20.098Z,20.68
2022-09-22T12:44:20.110Z,20.63
2022-09-22T12:45:20.054Z,20.61
2022-09-22T12:46:20.072Z,20.25
2022-09-22T12:47:20.060Z,20.40
2022-09-22T12:48:20.092Z,20.58
2022-09-22T12:49:20.140Z,20.51
2022-09-22T12:50:20.005Z,20.42
2022-09-22T12:51:20.035Z,20.30
2022-09-22T12:52:19.995Z,20.27
2022-09-22T12:53:19.963Z,20.41
2022-09-22T12:54:19.993Z,20.51
2022-09-22T12:55:19.952Z,20.68
2022-09-22T12:56:19.958Z,20.90
2022-09-22T12:57:19.919Z,20.93
2022-09-22T12:58:19.918Z,20.85
2022-09-22T12:59:19.908Z,20.94
2022-09-22T13:00:19.981Z,20.72
2022-09-22T13:01:19.979Z,20.68
2022-09-22T13:02:19.986Z,20.88
2022-09-22T13:03:19.873Z,21.00
2022-09-22T13:04:19.869Z,21.06
2022-09-22T13:05:20.017Z,20.81
2022-09-22T13:06:19.923Z,20.85
2022-09-22T13:07:19.815Z,20.83
2022-09-22T13:08:20.372Z,20.63
2022-09-22T13:09:20.136Z,20.61